createdAt,value
2022-09-05T00:00:52.531Z,4.55
2022-09-05T00:03:28.636Z,4.43
2022-09-05T00:06:17.131Z,4.60
2022-09-05T00:08:56.978Z,3.72
2022-09-05T00:11:41.671Z,4.05
2022-09-05T00:15:15.317Z,4.47
2022-09-05T00:18:35.363Z,4.25
2022-09-05T00:24:23.378Z,4.40
2022-09-05T00:24:42.139Z,4.55
2022-09-05T00:26:42.315Z,4.53
2022-09-05T00:29:47.845Z,4.82
2022-09-05T00:32:39.480Z,4.72
2022-09-05T00:35:25.970Z,4.85
2022-09-05T00:37:54.318Z,4.13
2022-09-05T00:40:26.185Z,4.72
2022-09-05T00:42:55.549Z,4.60
2022-09-05T00:45:34.862Z,4.82
2022-09-05T00:48:13.311Z,4.75
2022-09-05T00:51:09.534Z,4.97
2022-09-05T00:53:45.006Z,4.53
2022-09-05T00:56:18.383Z,4.60
2022-09-05T00:58:48.831Z,4.60
2022-09-05T01:01:28.775Z,5.03
2022-09-05T01:04:05.796Z,4.57
2022-09-05T01:06:57.697Z,5.30
2022-09-05T01:09:25.005Z,4.65
2022-09-05T01:12:15.520Z,4.43
2022-09-05T01:15:00.641Z,5.25
2022-09-05T01:17:28.037Z,4.82
2022-09-05T01:20:19.081Z,4.80
2022-09-05T01:22:47.757Z,5.07
2022-09-05T01:25:20.390Z,4.63
2022-09-05T01:29:17.313Z,4.55
2022-09-05T01:31:02.177Z,4.68
2022-09-05T01:33:38.398Z,5.03
2022-09-05T01:36:11.200Z,5.32
2022-09-05T01:38:38.662Z,5.10
2022-09-05T01:41:18.383Z,5.53
2022-09-05T01:43:52.583Z,4.35
2022-09-05T01:46:26.345Z,4.75
2022-09-05T01:49:14.152Z,5.22
2022-09-05T01:52:12.807Z,4.95
2022-09-05T01:54:58.712Z,4.85
2022-09-05T01:57:29.331Z,4.90
2022-09-05T02:00:07.090Z,5.05
2022-09-05T02:02:50.865Z,4.82
2022-09-05T02:05:48.898Z,5.45
2022-09-05T02:08:16.986Z,5.10
2022-09-05T02:11:07.608Z,5.47
2022-09-05T02:13:35.082Z,4.60
2022-09-05T02:16:02.490Z,4.93
2022-09-05T02:18:48.638Z,5.13
2022-09-05T02:21:22.448Z,5.15
2022-09-05T02:23:55.501Z,5.20
2022-09-05T02:26:30.267Z,5.28
2022-09-05T02:28:57.648Z,5.13
2022-09-05T02:31:45.581Z,5.00
2022-09-05T02:34:28.578Z,5.32
2022-09-05T02:37:02.903Z,4.80
2022-09-05T02:45:01.649Z,5.50
2022-09-05T02:45:07.890Z,5.45
2022-09-05T02:45:26.626Z,5.15
2022-09-05T02:48:14.925Z,5.53
2022-09-05T02:55:54.782Z,5.03
2022-09-05T02:57:42.650Z,5.03
2022-09-05T02:57:42.662Z,5.57
2022-09-05T02:59:10.720Z,5.40
2022-09-05T03:01:44.546Z,4.88
2022-09-05T03:04:51.046Z,5.72
2022-09-05T03:07:24.386Z,5.20
2022-09-05T03:10:03.964Z,4.95
2022-09-05T03:12:50.107Z,5.03
2022-09-05T03:15:18.744Z,5.82
2022-09-05T03:18:20.194Z,5.38
2022-09-05T03:21:09.403Z,5.25
2022-09-05T03:23:55.804Z,5.70
2022-09-05T03:26:26.395Z,5.30
2022-09-05T03:28:53.761Z,5.80
2022-09-05T03:31:40.433Z,5.68
2022-09-05T03:34:07.717Z,5.53
2022-09-05T03:36:38.399Z,5.78
2022-09-05T03:39:18.015Z,5.50
2022-09-05T03:42:04.458Z,6.20
2022-09-05T03:45:00.805Z,5.82
2022-09-05T03:47:47.044Z,5.72
2022-09-05T03:57:04.973Z,5.72
2022-09-05T03:57:14.288Z,5.75
2022-09-05T03:57:18.470Z,5.68
2022-09-05T03:59:32.663Z,6.50
2022-09-05T04:04:03.691Z,6.18
2022-09-05T04:08:28.022Z,6.30
2022-09-05T04:08:40.944Z,5.82
2022-09-05T04:10:42.526Z,6.03
2022-09-05T04:13:18.112Z,6.18
2022-09-05T04:15:51.376Z,5.93
2022-09-05T04:18:33.175Z,6.25
2022-09-05T04:21:05.315Z,6.00
2022-09-05T04:24:02.118Z,5.95
2022-09-05T04:26:32.389Z,6.32
2022-09-05T04:29:15.218Z,5.95
2022-09-05T04:31:42.679Z,5.75
2022-09-05T04:34:18.131Z,6.60
2022-09-05T04:36:47.941Z,6.13
2022-09-05T04:39:18.334Z,6.05
2022-09-05T04:41:47.924Z,6.10
2022-09-05T04:44:17.467Z,5.88
2022-09-05T04:46:49.182Z,6.35
2022-09-05T04:49:24.442Z,6.35
2022-09-05T04:52:01.228Z,6.43
2022-09-05T04:54:44.329Z,5.78
2022-09-05T04:57:16.124Z,6.15
2022-09-05T05:06:02.939Z,6.28
2022-09-05T05:06:11.540Z,6.75
2022-09-05T05:06:17.542Z,6.60
2022-09-05T05:08:15.719Z,6.50
2022-09-05T05:15:13.887Z,6.53
2022-09-05T05:18:03.479Z,5.68
2022-09-05T05:18:06.881Z,6.50
2022-09-05T05:19:32.773Z,5.97
2022-09-05T05:22:02.355Z,6.53
2022-09-05T05:24:29.903Z,6.35
2022-09-05T05:27:00.280Z,6.50
2022-09-05T05:29:27.748Z,6.30
2022-09-05T05:31:57.017Z,6.43
2022-09-05T05:34:33.317Z,6.97
2022-09-05T05:37:00.910Z,6.15
2022-09-05T05:39:29.809Z,6.65
2022-09-05T05:41:57.872Z,6.40
2022-09-05T05:44:29.939Z,6.32
2022-09-05T05:46:57.450Z,6.45
2022-09-05T05:49:25.033Z,6.70
2022-09-05T05:52:01.739Z,6.05
2022-09-05T05:54:30.322Z,6.63
2022-09-05T05:57:12.371Z,6.55
2022-09-05T05:59:56.401Z,6.15
2022-09-05T06:02:44.053Z,6.05
2022-09-05T06:05:25.624Z,6.55
2022-09-05T06:10:30.366Z,6.10
2022-09-05T06:15:03.988Z,6.35
2022-09-05T06:15:06.967Z,6.55
2022-09-05T06:16:52.573Z,6.20
2022-09-05T06:19:19.915Z,6.57
2022-09-05T06:22:13.768Z,6.03
2022-09-05T06:25:17.113Z,5.87
2022-09-05T06:28:19.130Z,5.75
2022-09-05T06:31:28.958Z,5.85
2022-09-05T06:34:12.857Z,6.25
2022-09-05T06:37:12.131Z,5.93
2022-09-05T06:39:47.885Z,6.18
2022-09-05T06:42:30.708Z,5.80
2022-09-05T06:45:28.153Z,6.00
2022-09-05T06:47:59.554Z,6.15
2022-09-05T06:50:30.665Z,6.03
2022-09-05T06:53:24.155Z,6.00
2022-09-05T06:56:30.329Z,5.97
2022-09-05T07:01:59.568Z,6.30
2022-09-05T07:05:37.855Z,5.82
2022-09-05T07:07:30.543Z,5.82
2022-09-05T07:10:03.873Z,6.22
2022-09-05T07:12:49.352Z,6.13
2022-09-05T07:15:39.707Z,7.05
2022-09-05T07:18:13.696Z,6.32
2022-09-05T07:21:02.323Z,7.07
2022-09-05T07:24:06.470Z,7.15
2022-09-05T07:26:51.774Z,6.60
2022-09-05T07:29:21.344Z,6.45
2022-09-05T07:31:52.396Z,6.97
2022-09-05T07:34:23.068Z,6.00
2022-09-05T07:37:13.969Z,6.28
2022-09-05T07:39:41.950Z,6.65
2022-09-05T07:42:13.529Z,6.97
2022-09-05T07:44:45.467Z,5.82
2022-09-05T07:47:22.113Z,6.10
2022-09-05T07:50:32.455Z,6.15
2022-09-05T07:56:56.542Z,5.57
2022-09-05T07:56:58.645Z,6.38
2022-09-05T07:58:27.551Z,5.70
2022-09-05T08:00:58.395Z,5.90
2022-09-05T08:03:32.014Z,5.78
2022-09-05T08:06:05.389Z,5.80
2022-09-05T08:09:18.440Z,6.10
2022-09-05T08:11:38.709Z,5.43
2022-09-05T08:14:40.705Z,5.95
2022-09-05T08:17:07.068Z,5.40
2022-09-05T08:20:10.087Z,5.30
2022-09-05T08:22:52.377Z,4.93
2022-09-05T08:25:27.581Z,5.60
2022-09-05T08:28:06.939Z,5.00
2022-09-05T08:30:39.850Z,5.15
2022-09-05T08:33:11.871Z,5.43
2022-09-05T08:36:09.166Z,5.25
2022-09-05T08:38:40.820Z,5.47
2022-09-05T08:41:14.974Z,5.70
2022-09-05T08:46:44.992Z,5.55
2022-09-05T08:46:55.305Z,5.80
2022-09-05T08:49:37.999Z,5.13
2022-09-05T08:52:17.905Z,5.57
2022-09-05T08:55:07.226Z,5.18
2022-09-05T08:57:44.655Z,5.03
2022-09-05T09:00:20.091Z,5.72
2022-09-05T09:02:49.127Z,5.43
2022-09-05T09:05:22.535Z,5.72
2022-09-05T09:07:52.124Z,5.68
2022-09-05T09:10:29.352Z,5.82
2022-09-05T09:13:05.943Z,5.10
2022-09-05T09:15:42.400Z,5.40
2022-09-05T09:18:15.072Z,5.57
2022-09-05T09:21:05.360Z,5.65
2022-09-05T09:23:32.959Z,5.20
2022-09-05T09:26:11.262Z,5.20
2022-09-05T09:28:50.162Z,5.13
2022-09-05T09:31:37.944Z,5.60
2022-09-05T09:34:14.726Z,5.50
2022-09-05T09:37:01.043Z,5.10
2022-09-05T09:39:38.590Z,5.15
2022-09-05T09:42:32.373Z,5.85
2022-09-05T09:45:27.565Z,5.05
2022-09-05T09:48:18.789Z,5.82
2022-09-05T09:51:00.205Z,4.90
2022-09-05T09:53:37.200Z,4.97
2022-09-05T09:56:19.821Z,5.10
2022-09-05T09:58:47.357Z,5.45
2022-09-05T10:01:34.812Z,4.72
2022-09-05T10:10:36.060Z,4.38
2022-09-05T10:10:48.643Z,5.15
2022-09-05T10:10:58.214Z,4.93
2022-09-05T10:13:20.521Z,4.63
2022-09-05T10:16:06.117Z,4.47
2022-09-05T10:18:45.505Z,4.25
2022-09-05T10:21:24.612Z,4.55
2022-09-05T10:23:55.166Z,4.30
2022-09-05T10:26:49.129Z,4.32
2022-09-05T10:29:36.439Z,4.22
2022-09-05T10:35:06.038Z,4.40
2022-09-05T10:35:23.248Z,4.20
2022-09-05T10:37:58.827Z,4.20
2022-09-05T10:40:29.169Z,4.05
2022-09-05T10:43:23.971Z,3.67
2022-09-05T10:45:57.679Z,3.58
2022-09-05T10:48:52.924Z,3.70
2022-09-05T10:51:29.900Z,3.75
2022-09-05T10:53:59.179Z,3.50
2022-09-05T10:56:30.059Z,3.80
2022-09-05T10:59:59.850Z,3.22
2022-09-05T11:02:26.777Z,2.97
2022-09-05T11:05:01.407Z,3.35
2022-09-05T11:07:47.746Z,3.53
2022-09-05T11:10:25.282Z,3.03
2022-09-05T11:12:58.946Z,2.50
2022-09-05T11:15:34.864Z,4.00
2022-09-05T11:18:04.517Z,2.40
2022-09-05T11:20:35.858Z,2.90
2022-09-05T11:23:23.608Z,2.80
2022-09-05T11:26:01.233Z,2.67
2022-09-05T11:29:00.799Z,2.72
2022-09-05T11:32:13.808Z,2.90
2022-09-05T11:39:48.695Z,3.08
2022-09-05T11:40:10.677Z,2.67
2022-09-05T11:41:01.436Z,2.20
2022-09-05T11:43:40.285Z,2.35
2022-09-05T11:46:29.583Z,2.80
2022-09-05T11:48:57.404Z,3.05
2022-09-05T11:51:38.393Z,2.65
2022-09-05T11:54:43.248Z,2.40
2022-09-05T12:00:33.745Z,2.30
2022-09-05T12:03:11.992Z,2.72
2022-09-05T12:06:01.816Z,3.30
2022-09-05T12:08:40.685Z,3.25
2022-09-05T12:11:21.014Z,2.40
2022-09-05T12:13:51.965Z,2.90
2022-09-05T12:16:19.866Z,3.10
2022-09-05T12:18:54.427Z,2.67
2022-09-05T12:21:24.797Z,3.00
2022-09-05T12:24:53.791Z,3.15
2022-09-05T12:27:43.066Z,2.90
2022-09-05T12:29:48.960Z,3.17
2022-09-05T12:33:58.164Z,3.00
2022-09-05T12:36:04.060Z,3.40
2022-09-05T12:39:36.682Z,3.25
2022-09-05T12:41:43.151Z,3.03
2022-09-05T12:44:36.522Z,3.00
2022-09-05T12:46:54.511Z,3.08
2022-09-05T12:49:36.200Z,3.20
2022-09-05T12:52:05.553Z,3.03
2022-09-05T12:54:41.470Z,3.00
2022-09-05T13:01:00.196Z,3.22
2022-09-05T13:03:03.546Z,3.25
2022-09-05T13:03:28.672Z,3.15
2022-09-05T13:06:03.128Z,3.75
2022-09-05T13:08:40.371Z,3.20
2022-09-05T13:14:49.940Z,3.03
2022-09-05T13:15:00.587Z,2.90
2022-09-05T13:16:50.678Z,2.70
2022-09-05T13:19:24.490Z,3.05
2022-09-05T13:21:55.673Z,2.97
2022-09-05T13:24:28.196Z,2.72
2022-09-05T13:27:07.271Z,2.92
2022-09-05T13:30:44.121Z,2.90
2022-09-05T13:38:04.023Z,2.60
2022-09-05T13:38:15.761Z,2.53
2022-09-05T13:38:37.778Z,2.70
2022-09-05T13:41:27.779Z,2.63
2022-09-05T13:44:00.199Z,2.97
2022-09-05T13:46:58.970Z,2.85
2022-09-05T13:49:31.706Z,2.72
2022-09-05T13:52:12.125Z,3.00
2022-09-05T13:54:50.260Z,2.60
2022-09-05T13:57:31.987Z,2.90
2022-09-05T14:00:26.799Z,2.50
2022-09-05T14:03:37.600Z,3.00
2022-09-05T14:11:44.739Z,2.75
2022-09-05T14:15:08.304Z,2.45
2022-09-05T14:20:17.412Z,2.35
2022-09-05T14:22:49.612Z,2.58
2022-09-05T14:25:30.658Z,2.97
2022-09-05T14:28:01.468Z,2.50
2022-09-05T14:33:22.516Z,2.65
2022-09-05T14:37:43.110Z,2.72
2022-09-05T14:37:54.223Z,2.20
2022-09-05T14:39:30.386Z,2.40
2022-09-05T14:42:19.497Z,2.72
2022-09-05T14:45:06.265Z,3.15
2022-09-05T14:47:40.617Z,3.70
2022-09-05T14:50:21.265Z,3.08
2022-09-05T14:58:09.898Z,3.00
2022-09-05T15:02:42.985Z,3.00
2022-09-05T15:02:52.607Z,2.45
2022-09-05T15:05:11.099Z,2.90
2022-09-05T15:07:41.422Z,2.65
2022-09-05T15:12:16.598Z,2.67
2022-09-05T15:13:06.776Z,3.00
2022-09-05T15:15:38.719Z,3.25
2022-09-05T15:18:12.280Z,3.28
2022-09-05T15:20:44.792Z,2.40
2022-09-05T15:23:16.905Z,2.70
2022-09-05T15:26:04.849Z,2.58
2022-09-05T15:28:32.880Z,2.47
2022-09-05T15:31:04.844Z,2.70
2022-09-05T15:33:32.714Z,2.72
2022-09-05T15:36:00.984Z,2.53
2022-09-05T15:38:31.477Z,2.67
2022-09-05T15:41:09.463Z,2.50
2022-09-05T15:43:58.391Z,2.63
2022-09-05T15:46:34.262Z,2.72
2022-09-05T15:49:04.099Z,2.75
2022-09-05T15:51:36.485Z,2.58
2022-09-05T15:54:05.608Z,2.75
2022-09-05T15:56:38.926Z,2.42
2022-09-05T15:59:06.452Z,2.90
2022-09-05T16:01:58.067Z,3.97
2022-09-05T16:08:18.357Z,2.75
2022-09-05T16:10:35.759Z,4.10
2022-09-05T16:10:50.979Z,3.40
2022-09-05T16:12:57.143Z,2.75
2022-09-05T16:17:54.498Z,2.83
2022-09-05T16:23:26.563Z,3.53
2022-09-05T16:23:27.098Z,2.72
2022-09-05T16:24:08.203Z,2.92
2022-09-05T16:26:47.028Z,2.92
2022-09-05T16:29:36.216Z,3.15
2022-09-05T16:32:05.591Z,2.83
2022-09-05T16:34:44.128Z,3.20
2022-09-05T16:37:16.430Z,3.30
2022-09-05T16:39:56.243Z,3.40
2022-09-05T16:42:46.044Z,3.15
2022-09-05T16:45:14.998Z,3.17
2022-09-05T16:47:47.187Z,3.13
2022-09-05T16:50:16.513Z,3.45
2022-09-05T16:52:53.298Z,3.33
2022-09-05T16:55:21.638Z,3.80
2022-09-05T16:57:59.901Z,3.20
2022-09-05T17:00:32.035Z,3.45
2022-09-05T17:03:16.351Z,3.15
2022-09-05T17:06:04.050Z,3.30
2022-09-05T17:08:33.408Z,3.30
2022-09-05T17:11:12.261Z,3.60
2022-09-05T17:13:54.805Z,3.95
2022-09-05T17:16:44.356Z,3.47
2022-09-05T17:19:16.344Z,3.53
2022-09-05T17:23:29.300Z,3.90
2022-09-05T17:29:25.142Z,3.70
2022-09-05T17:29:33.949Z,3.45
2022-09-05T17:31:46.057Z,4.13
2022-09-05T17:33:44.697Z,3.95
2022-09-05T17:36:23.260Z,3.78
2022-09-05T17:39:39.924Z,4.30
2022-09-05T17:42:26.272Z,3.80
2022-09-05T17:45:08.232Z,5.18
2022-09-05T17:47:44.523Z,4.13
2022-09-05T17:50:13.959Z,4.75
2022-09-05T17:53:26.225Z,4.63
2022-09-05T17:55:50.077Z,3.70
2022-09-05T17:58:22.183Z,4.35
2022-09-05T18:00:49.720Z,4.03
2022-09-05T18:03:41.436Z,4.70
2022-09-05T18:06:20.509Z,3.90
2022-09-05T18:08:52.643Z,4.80
2022-09-05T18:11:25.871Z,3.90
2022-09-05T18:13:57.598Z,4.05
2022-09-05T18:17:36.803Z,4.47
2022-09-05T18:22:06.553Z,4.25
2022-09-05T18:24:52.714Z,4.57
2022-09-05T18:30:08.063Z,4.55
2022-09-05T18:32:39.850Z,4.20
2022-09-05T18:35:37.129Z,4.63
2022-09-05T18:38:05.704Z,4.88
2022-09-05T18:40:37.016Z,3.97
2022-09-05T18:43:13.502Z,4.47
2022-09-05T18:45:52.140Z,4.75
2022-09-05T18:48:30.566Z,4.65
2022-09-05T18:51:15.134Z,4.50
2022-09-05T18:53:47.269Z,4.40
2022-09-05T18:56:21.239Z,4.45
2022-09-05T18:58:55.517Z,4.32
2022-09-05T19:01:54.705Z,4.97
2022-09-05T19:04:33.194Z,4.88
2022-09-05T19:07:10.619Z,5.00
2022-09-05T19:09:42.144Z,4.82
2022-09-05T19:12:35.110Z,5.00
2022-09-05T19:15:08.672Z,5.07
2022-09-05T19:17:47.085Z,4.85
2022-09-05T19:20:32.486Z,4.88
2022-09-05T19:23:10.010Z,4.82
2022-09-05T19:25:39.521Z,5.25
2022-09-05T19:36:44.059Z,5.28
2022-09-05T19:36:50.270Z,5.40
2022-09-05T19:37:04.780Z,5.82
2022-09-05T19:37:22.270Z,5.50
2022-09-05T19:45:29.217Z,4.50
2022-09-05T19:47:36.397Z,5.70
2022-09-05T19:47:37.380Z,5.75
2022-09-05T19:48:21.017Z,5.97
2022-09-05T19:50:48.977Z,5.95
2022-09-05T19:53:18.625Z,5.60
2022-09-05T19:55:48.689Z,5.95
2022-09-05T19:58:21.588Z,5.57
2022-09-05T20:01:02.040Z,5.72
2022-09-05T20:03:31.784Z,6.35
2022-09-05T20:06:08.260Z,6.63
2022-09-05T20:08:41.655Z,5.95
2022-09-05T20:11:09.189Z,6.72
2022-09-05T20:13:36.491Z,6.68
2022-09-05T20:16:04.326Z,5.97
2022-09-05T20:18:40.370Z,5.53
2022-09-05T20:21:10.767Z,6.28
2022-09-05T20:23:49.272Z,6.30
2022-09-05T20:26:20.579Z,6.63
2022-09-05T20:28:52.730Z,5.93
2022-09-05T20:31:27.964Z,6.37
2022-09-05T20:33:57.942Z,6.63
2022-09-05T20:42:36.871Z,6.85
2022-09-05T20:43:20.080Z,6.53
2022-09-05T20:43:22.841Z,5.90
2022-09-05T20:44:59.293Z,6.38
2022-09-05T20:51:14.072Z,6.72
2022-09-05T20:54:14.297Z,6.78
2022-09-05T20:54:26.661Z,6.63
2022-09-05T20:56:23.870Z,6.65
2022-09-05T20:58:55.707Z,7.15
2022-09-05T21:01:24.187Z,6.88
2022-09-05T21:04:00.656Z,7.30
2022-09-05T21:06:33.805Z,7.25
2022-09-05T21:09:25.067Z,7.30
2022-09-05T21:11:54.313Z,7.00
2022-09-05T21:14:22.596Z,7.03
2022-09-05T21:16:56.847Z,6.72
2022-09-05T21:19:32.163Z,7.43
2022-09-05T21:22:06.092Z,7.90
2022-09-05T21:24:33.527Z,7.57
2022-09-05T21:27:15.648Z,7.75
2022-09-05T21:29:43.055Z,7.60
2022-09-05T21:32:12.790Z,8.10
2022-09-05T21:34:44.786Z,7.70
2022-09-05T21:37:13.899Z,7.28
2022-09-05T21:39:57.100Z,8.30
2022-09-05T21:43:36.111Z,7.95
2022-09-05T21:47:49.286Z,8.70
2022-09-05T21:48:06.444Z,8.35
2022-09-05T21:50:38.261Z,8.13
2022-09-05T21:55:51.815Z,9.32
2022-09-05T21:59:14.017Z,8.02
2022-09-05T21:59:29.239Z,8.32
2022-09-05T22:01:51.175Z,8.93
2022-09-05T22:04:22.366Z,8.20
2022-09-05T22:06:50.089Z,8.23
2022-09-05T22:09:19.969Z,8.50
2022-09-05T22:11:50.683Z,9.52
2022-09-05T22:14:19.337Z,8.85
2022-09-05T22:16:47.730Z,9.32
2022-09-05T22:19:18.075Z,8.38
2022-09-05T22:21:45.510Z,9.23
2022-09-05T22:24:13.466Z,8.85
2022-09-05T22:27:10.804Z,8.77
2022-09-05T22:29:35.289Z,8.48
2022-09-05T22:32:02.733Z,8.85
2022-09-05T22:34:30.234Z,9.57
2022-09-05T22:36:58.019Z,9.32
2022-09-05T22:39:37.116Z,9.02
2022-09-05T22:42:10.750Z,9.10
2022-09-05T22:44:41.699Z,8.95
2022-09-05T22:47:09.958Z,8.65
2022-09-05T22:49:37.624Z,8.55
2022-09-05T22:52:06.080Z,9.00
2022-09-05T22:54:33.765Z,9.10
2022-09-05T22:57:01.074Z,9.25
2022-09-05T22:59:28.543Z,9.50
2022-09-05T23:01:56.021Z,9.50
2022-09-05T23:04:23.886Z,9.85
2022-09-05T23:06:51.355Z,10.57
2022-09-05T23:09:18.836Z,10.43
2022-09-05T23:11:46.197Z,9.95
2022-09-05T23:14:13.470Z,9.35
2022-09-05T23:16:40.793Z,9.10
2022-09-05T23:19:08.066Z,9.68
2022-09-05T23:21:35.439Z,9.48
2022-09-05T23:24:02.803Z,10.00
2022-09-05T23:26:30.306Z,9.77
2022-09-05T23:28:57.683Z,9.63
2022-09-05T23:31:25.234Z,10.27
2022-09-05T23:33:52.613Z,9.95
2022-09-05T23:36:20.156Z,9.45
2022-09-05T23:38:47.471Z,9.48
2022-09-05T23:41:16.106Z,9.60
2022-09-05T23:43:43.713Z,9.30
2022-09-05T23:46:11.510Z,9.68
2022-09-05T23:48:38.887Z,9.38
2022-09-05T23:51:10.065Z,10.25
2022-09-05T23:53:37.805Z,10.25
2022-09-05T23:56:06.270Z,9.95
2022-09-05T23:58:34.087Z,9.98
